McClure, Pennsylvania
Current Conditions -  °F | °C
As of 4:53 AM on Tuesday 27 Jan 2015 (Local Time) from KSEG Reporting Station
Light Snow Light Snow  
Wind Chill: 13°   Ceiling: 6000
Heat Index: 24°   Visibility: 5mi
Dew Point: 18°   Wind: 12mph
Humidity: 77%   Direction: 360°N
Pressure: 29.79"   Gusts: NA
Location:  40.71°N, 77.31°W
Report Text: KSEG 270953Z AUTO 36010KT 5SM -SN OVC060 M04/M08 A2979 RMK AO2 SLP094 P0000 T10441078
Loading
Personal Weather Stations






























Interactive Weather Map New forecast layout! Learn more

10-Day Weather Forecast

Advertisements
Track Severe Weather on mobile